Skip Navigation Links Skip Navigation Links

Current Weather

Raleigh-Durham Intl, Raleigh, N.C.

For information only: do not use for flight planning or navigation.
Latest weather
Observation time Saturday, December 5, 2020 2:51 AM EST
Local time Saturday, December 5, 2020 3:36 AM EST
Flight conditions Marginal Visual Meteorological Conditions
Winds
Wind direction West (280°)
Wind speed 12 mph
Wind gusting to 28 mph
Visibility 10 mi.
Sky condition
Ceiling 2,500 ft. broken clouds
Cloud layer scattered clouds 1,400 ft.
Cloud layer broken clouds 2,500 ft.
Cloud layer broken clouds 4,500 ft.
Temperature 52°F
Dewpoint 48°F
Altimeter 29.76 in.Hg
Precipitation
Rain ended 2:06 AM
Precipitation last hour 0.02 in.
Derived measurements
Relative humidity 86%
Density altitude 318 ft.
Sea-level pressure 29.75 in.Hg
Remarks
Automated weather observing station with precipitation discriminator.
METAR KRDU 050751Z 28010G24KT 10SM SCT014 BKN025 BKN045 11/09 A2976 RMK AO2 RAE06 SLP075 P0002 T01110089

Settings

Location code

InnerDrive.Weather 4.0.6770.0 Release CLR 4.0.30319.42000
Copyright ©2018 Inner Drive Technology. All rights reserved. Portions Copyright ©1986-2018 David Braverman.

Find weather

Site navigation


Skip Navigation Links

Place info

Page info

PayPal - The safer, easier way to pay online!

Return home.

Copyright ©2020 Inner Drive Technology. Purveyors of fine, hand-crafted computer software. Page printed 2020-12-05T08:36:53 UTC.